Terminal Aerodrome Forecast
Issued by NWS

Home | Current Version | Previous Version | Text Only | Print | Product List | Glossary On
Versions: 1 2 3 4 5 6 7 8 9 10 11 12 13 14 15 16 17 18 19 20 21 22 23 24 25
000
FTAK31 PANC 240650 AAA
TAFAHO
TAF AMD
PAHO 240650Z 2407/2506 VRB05KT P6SM VCFG FEW002 SCT040 BKN200
      TEMPO 2407/2409 2SM BR
     FM241800 22008KT P6SM VCSH SCT030 OVC050
     FM250000 26013KT P6SM SCT030 BKN060=

USA.gov is the U.S. government's official web portal to all federal, state and local government web resources and services.